sensor_id;sensor_type;location;lat;lon;timestamp;P1;durP1;ratioP1;P2;durP2;ratioP2
66979;SDS011;54048;51.468;-2.572;2022-09-20T00:00:39;13.02;;;7.10;;
66979;SDS011;54048;51.468;-2.572;2022-09-20T00:03:05;8.32;;;5.45;;
66979;SDS011;54048;51.468;-2.572;2022-09-20T00:05:37;11.68;;;5.43;;
66979;SDS011;54048;51.468;-2.572;2022-09-20T00:08:06;9.05;;;4.70;;
66979;SDS011;54048;51.468;-2.572;2022-09-20T00:10:33;10.63;;;4.30;;
66979;SDS011;54048;51.468;-2.572;2022-09-20T00:13:02;7.15;;;4.32;;
66979;SDS011;54048;51.468;-2.572;2022-09-20T00:15:28;8.02;;;4.00;;
66979;SDS011;54048;51.468;-2.572;2022-09-20T00:17:54;8.90;;;4.15;;
66979;SDS011;54048;51.468;-2.572;2022-09-20T00:20:20;9.82;;;4.38;;
66979;SDS011;54048;51.468;-2.572;2022-09-20T00:22:45;6.72;;;3.55;;
66979;SDS011;54048;51.468;-2.572;2022-09-20T00:25:13;6.28;;;3.83;;
66979;SDS011;54048;51.468;-2.572;2022-09-20T00:27:43;6.75;;;3.88;;
66979;SDS011;54048;51.468;-2.572;2022-09-20T00:30:10;10.23;;;4.50;;
66979;SDS011;54048;51.468;-2.572;2022-09-20T00:32:36;7.50;;;4.07;;
66979;SDS011;54048;51.468;-2.572;2022-09-20T00:35:02;5.90;;;3.42;;
66979;SDS011;54048;51.468;-2.572;2022-09-20T00:37:37;8.05;;;3.70;;
66979;SDS011;54048;51.468;-2.572;2022-09-20T00:40:11;7.43;;;3.83;;
66979;SDS011;54048;51.468;-2.572;2022-09-20T00:42:39;6.30;;;3.65;;
66979;SDS011;54048;51.468;-2.572;2022-09-20T00:45:06;7.60;;;3.78;;
66979;SDS011;54048;51.468;-2.572;2022-09-20T00:52:53;6.03;;;3.33;;
66979;SDS011;54048;51.468;-2.572;2022-09-20T00:55:27;5.70;;;3.45;;
66979;SDS011;54048;51.468;-2.572;2022-09-20T00:57:53;6.50;;;3.65;;
66979;SDS011;54048;51.468;-2.572;2022-09-20T01:00:19;6.45;;;3.20;;
66979;SDS011;54048;51.468;-2.572;2022-09-20T01:02:45;5.40;;;3.45;;
66979;SDS011;54048;51.468;-2.572;2022-09-20T01:05:12;5.53;;;4.05;;
66979;SDS011;54048;51.468;-2.572;2022-09-20T01:07:39;6.43;;;3.95;;
66979;SDS011;54048;51.468;-2.572;2022-09-20T01:10:06;5.22;;;3.47;;
66979;SDS011;54048;51.468;-2.572;2022-09-20T01:12:32;6.70;;;3.60;;
66979;SDS011;54048;51.468;-2.572;2022-09-20T01:14:59;7.38;;;3.75;;
66979;SDS011;54048;51.468;-2.572;2022-09-20T01:17:30;6.90;;;3.33;;
66979;SDS011;54048;51.468;-2.572;2022-09-20T01:27:58;5.72;;;3.88;;
66979;SDS011;54048;51.468;-2.572;2022-09-20T01:30:25;6.32;;;4.10;;
66979;SDS011;54048;51.468;-2.572;2022-09-20T01:33:01;6.25;;;3.90;;
66979;SDS011;54048;51.468;-2.572;2022-09-20T01:35:34;4.95;;;3.47;;
66979;SDS011;54048;51.468;-2.572;2022-09-20T01:38:06;6.30;;;3.72;;
66979;SDS011;54048;51.468;-2.572;2022-09-20T01:46:38;7.88;;;3.55;;
66979;SDS011;54048;51.468;-2.572;2022-09-20T02:03:39;8.20;;;3.70;;
66979;SDS011;54048;51.468;-2.572;2022-09-20T02:28:23;8.63;;;3.92;;
66979;SDS011;54048;51.468;-2.572;2022-09-20T02:33:50;5.63;;;3.65;;
66979;SDS011;54048;51.468;-2.572;2022-09-20T02:36:41;6.25;;;3.30;;
66979;SDS011;54048;51.468;-2.572;2022-09-20T02:39:20;6.43;;;3.70;;
66979;SDS011;54048;51.468;-2.572;2022-09-20T02:47:31;5.93;;;3.78;;
66979;SDS011;54048;51.468;-2.572;2022-09-20T02:52:59;7.95;;;4.00;;
66979;SDS011;54048;51.468;-2.572;2022-09-20T03:04:06;6.60;;;3.60;;
66979;SDS011;54048;51.468;-2.572;2022-09-20T03:12:12;5.95;;;3.95;;
66979;SDS011;54048;51.468;-2.572;2022-09-20T03:14:52;5.70;;;3.88;;
66979;SDS011;54048;51.468;-2.572;2022-09-20T03:17:37;7.18;;;4.50;;
66979;SDS011;54048;51.468;-2.572;2022-09-20T03:29:05;8.07;;;5.22;;
66979;SDS011;54048;51.468;-2.572;2022-09-20T03:46:21;10.35;;;4.95;;
66979;SDS011;54048;51.468;-2.572;2022-09-20T04:05:03;9.23;;;4.43;;
66979;SDS011;54048;51.468;-2.572;2022-09-20T04:21:13;8.88;;;4.63;;
66979;SDS011;54048;51.468;-2.572;2022-09-20T04:26:45;7.82;;;4.82;;
66979;SDS011;54048;51.468;-2.572;2022-09-20T04:29:24;7.28;;;4.50;;
66979;SDS011;54048;51.468;-2.572;2022-09-20T04:34:45;8.40;;;4.13;;
66979;SDS011;54048;51.468;-2.572;2022-09-20T04:37:33;10.27;;;4.55;;
66979;SDS011;54048;51.468;-2.572;2022-09-20T04:54:03;7.82;;;4.10;;
66979;SDS011;54048;51.468;-2.572;2022-09-20T05:27:45;8.05;;;5.00;;
66979;SDS011;54048;51.468;-2.572;2022-09-20T05:35:51;10.77;;;5.03;;
66979;SDS011;54048;51.468;-2.572;2022-09-20T05:38:28;11.65;;;5.45;;
66979;SDS011;54048;51.468;-2.572;2022-09-20T05:43:34;9.80;;;5.10;;
66979;SDS011;54048;51.468;-2.572;2022-09-20T06:00:18;14.43;;;5.53;;
66979;SDS011;54048;51.468;-2.572;2022-09-20T06:11:17;14.77;;;6.40;;
66979;SDS011;54048;51.468;-2.572;2022-09-20T06:19:56;12.95;;;5.85;;
66979;SDS011;54048;51.468;-2.572;2022-09-20T06:22:31;16.58;;;6.20;;
66979;SDS011;54048;51.468;-2.572;2022-09-20T06:27:29;17.10;;;6.38;;
66979;SDS011;54048;51.468;-2.572;2022-09-20T06:35:40;14.90;;;7.13;;
66979;SDS011;54048;51.468;-2.572;2022-09-20T06:38:53;14.50;;;6.47;;
66979;SDS011;54048;51.468;-2.572;2022-09-20T06:41:46;13.40;;;6.35;;
66979;SDS011;54048;51.468;-2.572;2022-09-20T06:44:12;9.68;;;4.95;;
66979;SDS011;54048;51.468;-2.572;2022-09-20T06:46:37;9.80;;;5.53;;
66979;SDS011;54048;51.468;-2.572;2022-09-20T06:49:05;11.65;;;5.68;;
66979;SDS011;54048;51.468;-2.572;2022-09-20T06:51:34;14.30;;;6.13;;
66979;SDS011;54048;51.468;-2.572;2022-09-20T06:54:01;14.32;;;6.28;;
66979;SDS011;54048;51.468;-2.572;2022-09-20T06:56:28;11.85;;;5.50;;
66979;SDS011;54048;51.468;-2.572;2022-09-20T06:58:55;13.38;;;5.35;;
66979;SDS011;54048;51.468;-2.572;2022-09-20T07:01:21;11.10;;;6.15;;
66979;SDS011;54048;51.468;-2.572;2022-09-20T07:03:47;12.18;;;5.43;;
66979;SDS011;54048;51.468;-2.572;2022-09-20T07:06:12;14.73;;;6.30;;
66979;SDS011;54048;51.468;-2.572;2022-09-20T07:08:43;10.38;;;5.43;;
66979;SDS011;54048;51.468;-2.572;2022-09-20T07:11:10;10.50;;;5.32;;
66979;SDS011;54048;51.468;-2.572;2022-09-20T07:13:38;11.50;;;5.40;;
66979;SDS011;54048;51.468;-2.572;2022-09-20T07:16:05;6.25;;;4.18;;
66979;SDS011;54048;51.468;-2.572;2022-09-20T07:18:32;11.50;;;4.18;;
66979;SDS011;54048;51.468;-2.572;2022-09-20T07:21:01;7.57;;;4.75;;
66979;SDS011;54048;51.468;-2.572;2022-09-20T07:23:27;11.60;;;5.05;;
66979;SDS011;54048;51.468;-2.572;2022-09-20T07:25:56;10.98;;;4.90;;
66979;SDS011;54048;51.468;-2.572;2022-09-20T07:28:25;9.95;;;4.88;;
66979;SDS011;54048;51.468;-2.572;2022-09-20T07:30:52;8.75;;;4.57;;
66979;SDS011;54048;51.468;-2.572;2022-09-20T07:33:18;13.23;;;4.80;;
66979;SDS011;54048;51.468;-2.572;2022-09-20T07:35:46;6.93;;;4.28;;
66979;SDS011;54048;51.468;-2.572;2022-09-20T07:38:12;11.80;;;4.47;;
66979;SDS011;54048;51.468;-2.572;2022-09-20T07:40:37;10.32;;;5.15;;
66979;SDS011;54048;51.468;-2.572;2022-09-20T07:43:03;8.20;;;4.72;;
66979;SDS011;54048;51.468;-2.572;2022-09-20T07:45:28;9.27;;;4.90;;
66979;SDS011;54048;51.468;-2.572;2022-09-20T07:47:56;11.07;;;5.10;;
66979;SDS011;54048;51.468;-2.572;2022-09-20T07:50:22;7.78;;;4.50;;
66979;SDS011;54048;51.468;-2.572;2022-09-20T07:52:48;12.35;;;5.72;;
66979;SDS011;54048;51.468;-2.572;2022-09-20T07:55:14;9.30;;;4.95;;
66979;SDS011;54048;51.468;-2.572;2022-09-20T07:57:39;7.20;;;4.70;;
66979;SDS011;54048;51.468;-2.572;2022-09-20T08:00:05;8.18;;;4.95;;
66979;SDS011;54048;51.468;-2.572;2022-09-20T08:02:31;8.07;;;5.40;;
66979;SDS011;54048;51.468;-2.572;2022-09-20T08:04:56;12.90;;;5.22;;
66979;SDS011;54048;51.468;-2.572;2022-09-20T08:07:22;9.77;;;4.65;;
66979;SDS011;54048;51.468;-2.572;2022-09-20T08:09:48;11.27;;;5.32;;
66979;SDS011;54048;51.468;-2.572;2022-09-20T08:12:13;8.60;;;5.25;;
66979;SDS011;54048;51.468;-2.572;2022-09-20T08:14:38;8.63;;;5.25;;
66979;SDS011;54048;51.468;-2.572;2022-09-20T08:17:05;9.32;;;5.15;;
66979;SDS011;54048;51.468;-2.572;2022-09-20T08:19:31;8.73;;;5.60;;
66979;SDS011;54048;51.468;-2.572;2022-09-20T08:21:57;8.32;;;4.78;;
66979;SDS011;54048;51.468;-2.572;2022-09-20T08:24:22;10.00;;;5.10;;
66979;SDS011;54048;51.468;-2.572;2022-09-20T08:26:50;8.95;;;5.10;;
66979;SDS011;54048;51.468;-2.572;2022-09-20T08:29:15;13.02;;;5.90;;
66979;SDS011;54048;51.468;-2.572;2022-09-20T08:31:41;9.98;;;5.18;;
66979;SDS011;54048;51.468;-2.572;2022-09-20T08:34:07;10.52;;;5.60;;
66979;SDS011;54048;51.468;-2.572;2022-09-20T08:36:35;12.52;;;5.22;;
66979;SDS011;54048;51.468;-2.572;2022-09-20T08:39:03;7.95;;;4.78;;
66979;SDS011;54048;51.468;-2.572;2022-09-20T08:41:30;9.05;;;5.00;;
66979;SDS011;54048;51.468;-2.572;2022-09-20T08:44:11;7.00;;;4.35;;
66979;SDS011;54048;51.468;-2.572;2022-09-20T08:46:41;6.95;;;4.20;;
66979;SDS011;54048;51.468;-2.572;2022-09-20T08:49:09;11.07;;;5.10;;
66979;SDS011;54048;51.468;-2.572;2022-09-20T08:51:40;16.77;;;6.10;;
66979;SDS011;54048;51.468;-2.572;2022-09-20T08:54:06;9.32;;;5.13;;
66979;SDS011;54048;51.468;-2.572;2022-09-20T08:56:37;9.45;;;5.47;;
66979;SDS011;54048;51.468;-2.572;2022-09-20T08:59:02;12.88;;;4.97;;
66979;SDS011;54048;51.468;-2.572;2022-09-20T09:01:29;8.07;;;5.70;;
66979;SDS011;54048;51.468;-2.572;2022-09-20T09:04:42;8.80;;;5.82;;
66979;SDS011;54048;51.468;-2.572;2022-09-20T09:06:43;8.02;;;5.40;;
66979;SDS011;54048;51.468;-2.572;2022-09-20T09:09:15;8.95;;;6.30;;
66979;SDS011;54048;51.468;-2.572;2022-09-20T09:11:47;12.38;;;6.20;;
66979;SDS011;54048;51.468;-2.572;2022-09-20T09:14:32;9.05;;;6.72;;
66979;SDS011;54048;51.468;-2.572;2022-09-20T09:17:23;10.07;;;5.70;;
66979;SDS011;54048;51.468;-2.572;2022-09-20T09:19:54;9.10;;;6.00;;
66979;SDS011;54048;51.468;-2.572;2022-09-20T09:27:34;8.32;;;5.57;;
66979;SDS011;54048;51.468;-2.572;2022-09-20T09:30:37;9.38;;;5.55;;
66979;SDS011;54048;51.468;-2.572;2022-09-20T09:36:06;10.70;;;5.15;;
66979;SDS011;54048;51.468;-2.572;2022-09-20T09:38:38;9.85;;;5.28;;
66979;SDS011;54048;51.468;-2.572;2022-09-20T09:41:05;7.78;;;4.43;;
66979;SDS011;54048;51.468;-2.572;2022-09-20T09:43:56;7.60;;;5.22;;
66979;SDS011;54048;51.468;-2.572;2022-09-20T09:46:24;8.57;;;4.82;;
66979;SDS011;54048;51.468;-2.572;2022-09-20T09:49:34;7.20;;;4.60;;
66979;SDS011;54048;51.468;-2.572;2022-09-20T09:54:27;6.35;;;4.65;;
66979;SDS011;54048;51.468;-2.572;2022-09-20T10:13:20;5.72;;;3.83;;
66979;SDS011;54048;51.468;-2.572;2022-09-20T10:16:51;4.65;;;3.17;;
66979;SDS011;54048;51.468;-2.572;2022-09-20T10:27:50;3.47;;;2.75;;
66979;SDS011;54048;51.468;-2.572;2022-09-20T10:30:51;2.70;;;2.30;;
66979;SDS011;54048;51.468;-2.572;2022-09-20T10:33:34;4.13;;;2.97;;
66979;SDS011;54048;51.468;-2.572;2022-09-20T10:41:25;2.80;;;2.50;;
66979;SDS011;54048;51.468;-2.572;2022-09-20T11:05:25;3.45;;;2.53;;
66979;SDS011;54048;51.468;-2.572;2022-09-20T11:10:33;2.47;;;2.28;;
66979;SDS011;54048;51.468;-2.572;2022-09-20T11:13:10;3.17;;;2.50;;
66979;SDS011;54048;51.468;-2.572;2022-09-20T11:22:15;2.95;;;2.60;;
66979;SDS011;54048;51.468;-2.572;2022-09-20T11:27:16;5.85;;;3.05;;
66979;SDS011;54048;51.468;-2.572;2022-09-20T11:32:40;4.25;;;2.80;;
66979;SDS011;54048;51.468;-2.572;2022-09-20T11:35:35;3.33;;;2.83;;
66979;SDS011;54048;51.468;-2.572;2022-09-20T11:40:38;4.20;;;3.47;;
66979;SDS011;54048;51.468;-2.572;2022-09-20T11:43:07;5.07;;;3.28;;
66979;SDS011;54048;51.468;-2.572;2022-09-20T11:45:33;5.28;;;2.72;;
66979;SDS011;54048;51.468;-2.572;2022-09-20T11:51:30;2.78;;;2.13;;
66979;SDS011;54048;51.468;-2.572;2022-09-20T11:54:10;3.60;;;2.10;;
66979;SDS011;54048;51.468;-2.572;2022-09-20T11:56:50;3.38;;;1.73;;
66979;SDS011;54048;51.468;-2.572;2022-09-20T11:59:36;2.85;;;1.92;;
66979;SDS011;54048;51.468;-2.572;2022-09-20T12:02:11;1.88;;;1.60;;
66979;SDS011;54048;51.468;-2.572;2022-09-20T12:04:46;2.58;;;1.60;;
66979;SDS011;54048;51.468;-2.572;2022-09-20T12:07:36;2.60;;;1.75;;
66979;SDS011;54048;51.468;-2.572;2022-09-20T12:10:18;3.13;;;1.60;;
66979;SDS011;54048;51.468;-2.572;2022-09-20T12:12:45;2.70;;;1.60;;
66979;SDS011;54048;51.468;-2.572;2022-09-20T12:15:26;2.80;;;1.85;;
66979;SDS011;54048;51.468;-2.572;2022-09-20T12:28:45;1.55;;;1.45;;
66979;SDS011;54048;51.468;-2.572;2022-09-20T12:39:17;1.85;;;1.20;;
66979;SDS011;54048;51.468;-2.572;2022-09-20T12:47:13;2.60;;;1.58;;
66979;SDS011;54048;51.468;-2.572;2022-09-20T13:00:33;2.30;;;1.60;;
66979;SDS011;54048;51.468;-2.572;2022-09-20T13:11:28;2.72;;;1.63;;
66979;SDS011;54048;51.468;-2.572;2022-09-20T13:14:10;2.13;;;1.73;;
66979;SDS011;54048;51.468;-2.572;2022-09-20T13:19:23;3.75;;;2.30;;
66979;SDS011;54048;51.468;-2.572;2022-09-20T13:27:17;2.08;;;1.85;;
66979;SDS011;54048;51.468;-2.572;2022-09-20T13:30:16;4.15;;;2.13;;
66979;SDS011;54048;51.468;-2.572;2022-09-20T13:32:43;3.97;;;2.10;;
66979;SDS011;54048;51.468;-2.572;2022-09-20T13:37:38;2.22;;;1.77;;
66979;SDS011;54048;51.468;-2.572;2022-09-20T13:40:16;4.55;;;2.20;;
66979;SDS011;54048;51.468;-2.572;2022-09-20T13:42:43;3.13;;;1.65;;
66979;SDS011;54048;51.468;-2.572;2022-09-20T13:45:11;2.25;;;1.80;;
66979;SDS011;54048;51.468;-2.572;2022-09-20T13:52:50;5.32;;;1.52;;
66979;SDS011;54048;51.468;-2.572;2022-09-20T13:57:53;2.97;;;2.40;;
66979;SDS011;54048;51.468;-2.572;2022-09-20T14:00:22;6.88;;;3.20;;
66979;SDS011;54048;51.468;-2.572;2022-09-20T14:02:54;4.90;;;2.90;;
66979;SDS011;54048;51.468;-2.572;2022-09-20T14:05:20;4.45;;;3.08;;
66979;SDS011;54048;51.468;-2.572;2022-09-20T14:07:53;2.97;;;2.15;;
66979;SDS011;54048;51.468;-2.572;2022-09-20T14:10:32;7.82;;;2.70;;
66979;SDS011;54048;51.468;-2.572;2022-09-20T14:13:01;2.10;;;1.90;;
66979;SDS011;54048;51.468;-2.572;2022-09-20T14:15:36;4.40;;;2.28;;
66979;SDS011;54048;51.468;-2.572;2022-09-20T14:18:05;9.27;;;3.00;;
66979;SDS011;54048;51.468;-2.572;2022-09-20T14:20:31;3.85;;;2.55;;
66979;SDS011;54048;51.468;-2.572;2022-09-20T14:22:57;5.38;;;2.90;;
66979;SDS011;54048;51.468;-2.572;2022-09-20T14:25:24;4.55;;;2.97;;
66979;SDS011;54048;51.468;-2.572;2022-09-20T14:28:15;5.50;;;2.60;;
66979;SDS011;54048;51.468;-2.572;2022-09-20T14:30:46;4.40;;;2.55;;
66979;SDS011;54048;51.468;-2.572;2022-09-20T14:33:20;4.63;;;2.63;;
66979;SDS011;54048;51.468;-2.572;2022-09-20T14:35:50;6.43;;;2.63;;
66979;SDS011;54048;51.468;-2.572;2022-09-20T14:38:16;6.38;;;2.70;;
66979;SDS011;54048;51.468;-2.572;2022-09-20T14:40:46;4.45;;;2.58;;
66979;SDS011;54048;51.468;-2.572;2022-09-20T14:46:07;4.97;;;2.20;;
66979;SDS011;54048;51.468;-2.572;2022-09-20T14:48:39;3.95;;;2.38;;
66979;SDS011;54048;51.468;-2.572;2022-09-20T14:53:42;2.38;;;1.60;;
66979;SDS011;54048;51.468;-2.572;2022-09-20T14:56:12;2.17;;;1.90;;
66979;SDS011;54048;51.468;-2.572;2022-09-20T15:01:36;3.42;;;1.92;;
66979;SDS011;54048;51.468;-2.572;2022-09-20T15:04:12;4.97;;;2.00;;
66979;SDS011;54048;51.468;-2.572;2022-09-20T15:06:43;3.85;;;2.67;;
66979;SDS011;54048;51.468;-2.572;2022-09-20T15:09:09;3.35;;;2.20;;
66979;SDS011;54048;51.468;-2.572;2022-09-20T15:11:36;9.60;;;2.33;;
66979;SDS011;54048;51.468;-2.572;2022-09-20T15:14:03;3.90;;;2.22;;
66979;SDS011;54048;51.468;-2.572;2022-09-20T15:16:29;4.75;;;2.25;;
66979;SDS011;54048;51.468;-2.572;2022-09-20T15:18:55;5.82;;;2.30;;
66979;SDS011;54048;51.468;-2.572;2022-09-20T15:21:20;2.85;;;2.35;;
66979;SDS011;54048;51.468;-2.572;2022-09-20T15:23:46;8.85;;;2.65;;
66979;SDS011;54048;51.468;-2.572;2022-09-20T15:26:11;4.90;;;2.58;;
66979;SDS011;54048;51.468;-2.572;2022-09-20T15:28:38;4.18;;;2.42;;
66979;SDS011;54048;51.468;-2.572;2022-09-20T15:31:03;4.75;;;2.50;;
66979;SDS011;54048;51.468;-2.572;2022-09-20T15:33:29;10.68;;;3.92;;
66979;SDS011;54048;51.468;-2.572;2022-09-20T15:35:56;5.78;;;3.00;;
66979;SDS011;54048;51.468;-2.572;2022-09-20T15:38:22;8.05;;;2.58;;
66979;SDS011;54048;51.468;-2.572;2022-09-20T15:40:58;3.63;;;2.28;;
66979;SDS011;54048;51.468;-2.572;2022-09-20T15:43:26;4.80;;;2.88;;
66979;SDS011;54048;51.468;-2.572;2022-09-20T15:45:55;6.78;;;3.03;;
66979;SDS011;54048;51.468;-2.572;2022-09-20T15:48:24;7.78;;;3.20;;
66979;SDS011;54048;51.468;-2.572;2022-09-20T15:53:29;5.10;;;2.90;;
66979;SDS011;54048;51.468;-2.572;2022-09-20T15:55:55;5.30;;;2.83;;
66979;SDS011;54048;51.468;-2.572;2022-09-20T15:58:24;5.22;;;3.00;;
66979;SDS011;54048;51.468;-2.572;2022-09-20T16:00:49;4.18;;;2.20;;
66979;SDS011;54048;51.468;-2.572;2022-09-20T16:03:15;5.70;;;2.65;;
66979;SDS011;54048;51.468;-2.572;2022-09-20T16:05:41;4.28;;;2.50;;
66979;SDS011;54048;51.468;-2.572;2022-09-20T16:08:07;5.70;;;3.00;;
66979;SDS011;54048;51.468;-2.572;2022-09-20T16:10:34;9.00;;;2.67;;
66979;SDS011;54048;51.468;-2.572;2022-09-20T16:13:03;5.18;;;2.20;;
66979;SDS011;54048;51.468;-2.572;2022-09-20T16:15:28;2.10;;;1.90;;
66979;SDS011;54048;51.468;-2.572;2022-09-20T16:17:54;24.00;;;6.25;;
66979;SDS011;54048;51.468;-2.572;2022-09-20T16:20:38;21.25;;;5.82;;
66979;SDS011;54048;51.468;-2.572;2022-09-20T16:23:03;50.47;;;15.55;;
66979;SDS011;54048;51.468;-2.572;2022-09-20T16:25:29;16.73;;;5.40;;
66979;SDS011;54048;51.468;-2.572;2022-09-20T16:27:54;18.33;;;6.20;;
66979;SDS011;54048;51.468;-2.572;2022-09-20T16:30:20;10.32;;;4.15;;
66979;SDS011;54048;51.468;-2.572;2022-09-20T16:32:45;22.48;;;7.93;;
66979;SDS011;54048;51.468;-2.572;2022-09-20T16:35:11;11.73;;;3.97;;
66979;SDS011;54048;51.468;-2.572;2022-09-20T16:37:36;11.65;;;4.60;;
66979;SDS011;54048;51.468;-2.572;2022-09-20T16:40:04;11.77;;;4.00;;
66979;SDS011;54048;51.468;-2.572;2022-09-20T16:42:30;6.25;;;2.63;;
66979;SDS011;54048;51.468;-2.572;2022-09-20T16:44:56;6.38;;;3.30;;
66979;SDS011;54048;51.468;-2.572;2022-09-20T16:47:22;7.97;;;3.50;;
66979;SDS011;54048;51.468;-2.572;2022-09-20T16:49:48;5.07;;;2.45;;
66979;SDS011;54048;51.468;-2.572;2022-09-20T16:52:15;6.50;;;3.30;;
66979;SDS011;54048;51.468;-2.572;2022-09-20T16:54:43;9.48;;;3.55;;
66979;SDS011;54048;51.468;-2.572;2022-09-20T16:57:08;4.28;;;2.47;;
66979;SDS011;54048;51.468;-2.572;2022-09-20T16:59:34;4.53;;;2.65;;
66979;SDS011;54048;51.468;-2.572;2022-09-20T17:01:59;2.95;;;2.22;;
66979;SDS011;54048;51.468;-2.572;2022-09-20T17:04:24;7.20;;;2.95;;
66979;SDS011;54048;51.468;-2.572;2022-09-20T17:06:50;4.10;;;2.47;;
66979;SDS011;54048;51.468;-2.572;2022-09-20T17:09:16;3.20;;;2.30;;
66979;SDS011;54048;51.468;-2.572;2022-09-20T17:11:43;4.32;;;2.20;;
66979;SDS011;54048;51.468;-2.572;2022-09-20T17:14:13;2.88;;;2.47;;
66979;SDS011;54048;51.468;-2.572;2022-09-20T17:16:40;3.40;;;2.20;;
66979;SDS011;54048;51.468;-2.572;2022-09-20T17:19:07;2.15;;;1.92;;
66979;SDS011;54048;51.468;-2.572;2022-09-20T17:21:35;3.08;;;2.17;;
66979;SDS011;54048;51.468;-2.572;2022-09-20T17:24:03;2.78;;;2.20;;
66979;SDS011;54048;51.468;-2.572;2022-09-20T17:26:30;5.82;;;2.60;;
66979;SDS011;54048;51.468;-2.572;2022-09-20T17:29:01;3.95;;;2.25;;
66979;SDS011;54048;51.468;-2.572;2022-09-20T17:31:28;4.40;;;2.22;;
66979;SDS011;54048;51.468;-2.572;2022-09-20T17:33:57;6.60;;;1.90;;
66979;SDS011;54048;51.468;-2.572;2022-09-20T17:36:25;9.77;;;3.13;;
66979;SDS011;54048;51.468;-2.572;2022-09-20T17:38:53;5.90;;;2.70;;
66979;SDS011;54048;51.468;-2.572;2022-09-20T17:41:20;6.68;;;2.47;;
66979;SDS011;54048;51.468;-2.572;2022-09-20T17:43:46;6.45;;;2.08;;
66979;SDS011;54048;51.468;-2.572;2022-09-20T17:46:16;5.50;;;2.35;;
66979;SDS011;54048;51.468;-2.572;2022-09-20T17:48:50;5.28;;;2.25;;
66979;SDS011;54048;51.468;-2.572;2022-09-20T17:51:17;4.70;;;2.80;;
66979;SDS011;54048;51.468;-2.572;2022-09-20T17:53:43;5.05;;;2.53;;
66979;SDS011;54048;51.468;-2.572;2022-09-20T17:56:12;4.97;;;2.53;;
66979;SDS011;54048;51.468;-2.572;2022-09-20T17:58:39;7.00;;;2.95;;
66979;SDS011;54048;51.468;-2.572;2022-09-20T18:01:09;5.32;;;2.63;;
66979;SDS011;54048;51.468;-2.572;2022-09-20T18:03:38;4.68;;;2.83;;
66979;SDS011;54048;51.468;-2.572;2022-09-20T18:06:16;4.65;;;2.40;;
66979;SDS011;54048;51.468;-2.572;2022-09-20T18:08:53;3.85;;;2.00;;
66979;SDS011;54048;51.468;-2.572;2022-09-20T18:11:20;3.75;;;2.63;;
66979;SDS011;54048;51.468;-2.572;2022-09-20T18:13:47;12.15;;;4.10;;
66979;SDS011;54048;51.468;-2.572;2022-09-20T18:16:13;8.75;;;3.47;;
66979;SDS011;54048;51.468;-2.572;2022-09-20T18:18:39;7.93;;;3.33;;
66979;SDS011;54048;51.468;-2.572;2022-09-20T18:21:13;4.00;;;2.78;;
66979;SDS011;54048;51.468;-2.572;2022-09-20T18:23:59;6.03;;;3.10;;
66979;SDS011;54048;51.468;-2.572;2022-09-20T18:26:26;10.55;;;3.17;;
66979;SDS011;54048;51.468;-2.572;2022-09-20T18:28:55;5.10;;;2.85;;
66979;SDS011;54048;51.468;-2.572;2022-09-20T18:31:29;6.32;;;3.03;;
66979;SDS011;54048;51.468;-2.572;2022-09-20T18:34:00;5.13;;;3.22;;
66979;SDS011;54048;51.468;-2.572;2022-09-20T18:36:27;6.53;;;3.42;;
66979;SDS011;54048;51.468;-2.572;2022-09-20T18:38:54;6.60;;;3.58;;
66979;SDS011;54048;51.468;-2.572;2022-09-20T18:41:26;7.25;;;3.25;;
66979;SDS011;54048;51.468;-2.572;2022-09-20T18:43:58;6.32;;;3.10;;
66979;SDS011;54048;51.468;-2.572;2022-09-20T18:46:24;11.27;;;4.18;;
66979;SDS011;54048;51.468;-2.572;2022-09-20T18:48:51;3.97;;;2.78;;
66979;SDS011;54048;51.468;-2.572;2022-09-20T18:51:18;7.72;;;3.00;;
66979;SDS011;54048;51.468;-2.572;2022-09-20T18:53:44;14.05;;;4.82;;
66979;SDS011;54048;51.468;-2.572;2022-09-20T18:58:45;12.00;;;4.03;;
66979;SDS011;54048;51.468;-2.572;2022-09-20T19:01:21;14.65;;;5.28;;
66979;SDS011;54048;51.468;-2.572;2022-09-20T19:15:02;13.18;;;6.70;;
66979;SDS011;54048;51.468;-2.572;2022-09-20T19:17:45;13.18;;;6.38;;
66979;SDS011;54048;51.468;-2.572;2022-09-20T19:28:56;7.85;;;4.78;;
66979;SDS011;54048;51.468;-2.572;2022-09-20T19:33:51;11.55;;;5.57;;
66979;SDS011;54048;51.468;-2.572;2022-09-20T19:36:19;20.08;;;8.07;;
66979;SDS011;54048;51.468;-2.572;2022-09-20T19:41:45;13.18;;;6.10;;
66979;SDS011;54048;51.468;-2.572;2022-09-20T19:47:20;11.48;;;5.65;;
66979;SDS011;54048;51.468;-2.572;2022-09-20T19:49:54;13.07;;;5.30;;
66979;SDS011;54048;51.468;-2.572;2022-09-20T19:52:23;12.27;;;5.47;;
66979;SDS011;54048;51.468;-2.572;2022-09-20T19:54:49;11.90;;;5.32;;
66979;SDS011;54048;51.468;-2.572;2022-09-20T19:57:21;10.32;;;6.13;;
66979;SDS011;54048;51.468;-2.572;2022-09-20T19:59:49;20.77;;;4.95;;
66979;SDS011;54048;51.468;-2.572;2022-09-20T20:02:15;10.57;;;5.57;;
66979;SDS011;54048;51.468;-2.572;2022-09-20T20:04:41;8.88;;;5.20;;
66979;SDS011;54048;51.468;-2.572;2022-09-20T20:07:22;10.20;;;5.13;;
66979;SDS011;54048;51.468;-2.572;2022-09-20T20:10:01;9.48;;;5.13;;
66979;SDS011;54048;51.468;-2.572;2022-09-20T20:18:35;17.40;;;6.63;;
66979;SDS011;54048;51.468;-2.572;2022-09-20T20:21:25;11.82;;;6.28;;
66979;SDS011;54048;51.468;-2.572;2022-09-20T20:26:50;17.83;;;8.27;;
66979;SDS011;54048;51.468;-2.572;2022-09-20T20:29:15;18.02;;;6.95;;
66979;SDS011;54048;51.468;-2.572;2022-09-20T20:31:41;15.45;;;6.70;;
66979;SDS011;54048;51.468;-2.572;2022-09-20T20:34:06;23.85;;;8.68;;
66979;SDS011;54048;51.468;-2.572;2022-09-20T20:36:32;23.52;;;8.23;;
66979;SDS011;54048;51.468;-2.572;2022-09-20T20:38:58;14.15;;;7.07;;
66979;SDS011;54048;51.468;-2.572;2022-09-20T20:41:24;15.00;;;9.55;;
66979;SDS011;54048;51.468;-2.572;2022-09-20T20:43:53;25.13;;;16.33;;
66979;SDS011;54048;51.468;-2.572;2022-09-20T20:46:20;12.23;;;5.63;;
66979;SDS011;54048;51.468;-2.572;2022-09-20T20:48:45;7.13;;;4.40;;
66979;SDS011;54048;51.468;-2.572;2022-09-20T20:51:15;8.23;;;4.65;;
66979;SDS011;54048;51.468;-2.572;2022-09-20T20:53:45;9.98;;;4.82;;
66979;SDS011;54048;51.468;-2.572;2022-09-20T20:56:13;14.90;;;4.75;;
66979;SDS011;54048;51.468;-2.572;2022-09-20T20:58:40;8.10;;;5.13;;
66979;SDS011;54048;51.468;-2.572;2022-09-20T21:01:08;8.93;;;5.72;;
66979;SDS011;54048;51.468;-2.572;2022-09-20T21:03:33;9.60;;;5.70;;
66979;SDS011;54048;51.468;-2.572;2022-09-20T21:05:59;10.07;;;5.78;;
66979;SDS011;54048;51.468;-2.572;2022-09-20T21:08:35;10.60;;;5.78;;
66979;SDS011;54048;51.468;-2.572;2022-09-20T21:11:04;10.98;;;5.88;;
66979;SDS011;54048;51.468;-2.572;2022-09-20T21:13:40;10.00;;;6.40;;
66979;SDS011;54048;51.468;-2.572;2022-09-20T21:16:07;14.45;;;6.38;;
66979;SDS011;54048;51.468;-2.572;2022-09-20T21:18:33;11.73;;;6.30;;
66979;SDS011;54048;51.468;-2.572;2022-09-20T21:20:59;8.95;;;6.30;;
66979;SDS011;54048;51.468;-2.572;2022-09-20T21:23:26;12.55;;;6.45;;
66979;SDS011;54048;51.468;-2.572;2022-09-20T21:25:58;12.80;;;7.35;;
66979;SDS011;54048;51.468;-2.572;2022-09-20T21:28:32;14.55;;;6.82;;
66979;SDS011;54048;51.468;-2.572;2022-09-20T21:30:58;14.75;;;7.50;;
66979;SDS011;54048;51.468;-2.572;2022-09-20T21:33:23;12.13;;;6.50;;
66979;SDS011;54048;51.468;-2.572;2022-09-20T21:35:49;12.85;;;7.32;;
66979;SDS011;54048;51.468;-2.572;2022-09-20T21:38:15;14.13;;;7.10;;
66979;SDS011;54048;51.468;-2.572;2022-09-20T21:40:41;13.70;;;7.20;;
66979;SDS011;54048;51.468;-2.572;2022-09-20T21:43:07;17.27;;;7.80;;
66979;SDS011;54048;51.468;-2.572;2022-09-20T21:45:33;14.23;;;7.13;;
66979;SDS011;54048;51.468;-2.572;2022-09-20T21:47:58;15.02;;;7.32;;
66979;SDS011;54048;51.468;-2.572;2022-09-20T21:50:24;12.45;;;6.88;;
66979;SDS011;54048;51.468;-2.572;2022-09-20T21:52:50;14.95;;;7.63;;
66979;SDS011;54048;51.468;-2.572;2022-09-20T21:55:15;11.95;;;7.35;;